sensor_id;sensor_type;location;lat;lon;timestamp;P1;durP1;ratioP1;P2;durP2;ratioP2
7074;SDS011;3578;51.568;6.932;2022-11-20T00:02:22;18.87;;;14.80;;
7074;SDS011;3578;51.568;6.932;2022-11-20T00:04:49;20.53;;;16.53;;
7074;SDS011;3578;51.568;6.932;2022-11-20T00:07:16;19.57;;;15.40;;
7074;SDS011;3578;51.568;6.932;2022-11-20T00:09:43;18.53;;;15.43;;
7074;SDS011;3578;51.568;6.932;2022-11-20T00:12:10;20.33;;;15.73;;
7074;SDS011;3578;51.568;6.932;2022-11-20T00:14:39;18.23;;;15.33;;
7074;SDS011;3578;51.568;6.932;2022-11-20T00:17:07;18.33;;;15.03;;
7074;SDS011;3578;51.568;6.932;2022-11-20T00:19:34;20.67;;;14.77;;
7074;SDS011;3578;51.568;6.932;2022-11-20T00:22:01;22.47;;;15.43;;
7074;SDS011;3578;51.568;6.932;2022-11-20T00:24:29;18.87;;;14.17;;
7074;SDS011;3578;51.568;6.932;2022-11-20T00:26:56;22.83;;;14.27;;
7074;SDS011;3578;51.568;6.932;2022-11-20T00:29:23;22.00;;;15.20;;
7074;SDS011;3578;51.568;6.932;2022-11-20T00:31:52;18.27;;;15.10;;
7074;SDS011;3578;51.568;6.932;2022-11-20T00:34:19;20.30;;;16.40;;
7074;SDS011;3578;51.568;6.932;2022-11-20T00:36:46;21.30;;;16.60;;
7074;SDS011;3578;51.568;6.932;2022-11-20T00:39:13;22.50;;;16.77;;
7074;SDS011;3578;51.568;6.932;2022-11-20T00:41:41;20.20;;;16.23;;
7074;SDS011;3578;51.568;6.932;2022-11-20T00:44:08;21.37;;;17.67;;
7074;SDS011;3578;51.568;6.932;2022-11-20T00:46:35;24.63;;;15.93;;
7074;SDS011;3578;51.568;6.932;2022-11-20T00:49:03;19.63;;;15.23;;
7074;SDS011;3578;51.568;6.932;2022-11-20T00:51:30;21.73;;;17.00;;
7074;SDS011;3578;51.568;6.932;2022-11-20T00:53:57;22.37;;;17.17;;
7074;SDS011;3578;51.568;6.932;2022-11-20T00:56:27;24.40;;;17.27;;
7074;SDS011;3578;51.568;6.932;2022-11-20T00:58:54;21.10;;;17.07;;
7074;SDS011;3578;51.568;6.932;2022-11-20T01:01:25;22.00;;;17.40;;
7074;SDS011;3578;51.568;6.932;2022-11-20T01:03:54;22.33;;;17.17;;
7074;SDS011;3578;51.568;6.932;2022-11-20T01:06:25;21.57;;;16.27;;
7074;SDS011;3578;51.568;6.932;2022-11-20T01:08:55;22.83;;;16.80;;
7074;SDS011;3578;51.568;6.932;2022-11-20T01:11:25;21.60;;;17.80;;
7074;SDS011;3578;51.568;6.932;2022-11-20T01:13:55;27.90;;;17.90;;
7074;SDS011;3578;51.568;6.932;2022-11-20T01:16:24;19.47;;;15.87;;
7074;SDS011;3578;51.568;6.932;2022-11-20T01:18:53;23.80;;;17.80;;
7074;SDS011;3578;51.568;6.932;2022-11-20T01:21:23;24.03;;;16.90;;
7074;SDS011;3578;51.568;6.932;2022-11-20T01:23:54;24.77;;;17.10;;
7074;SDS011;3578;51.568;6.932;2022-11-20T01:26:21;20.77;;;16.30;;
7074;SDS011;3578;51.568;6.932;2022-11-20T01:28:50;22.53;;;17.27;;
7074;SDS011;3578;51.568;6.932;2022-11-20T01:31:18;23.00;;;16.37;;
7074;SDS011;3578;51.568;6.932;2022-11-20T01:33:48;21.67;;;16.33;;
7074;SDS011;3578;51.568;6.932;2022-11-20T01:36:18;24.33;;;17.10;;
7074;SDS011;3578;51.568;6.932;2022-11-20T01:38:50;21.10;;;16.03;;
7074;SDS011;3578;51.568;6.932;2022-11-20T01:41:18;22.53;;;17.80;;
7074;SDS011;3578;51.568;6.932;2022-11-20T01:43:59;22.27;;;16.83;;
7074;SDS011;3578;51.568;6.932;2022-11-20T01:46:26;23.20;;;15.83;;
7074;SDS011;3578;51.568;6.932;2022-11-20T01:48:54;21.30;;;16.47;;
7074;SDS011;3578;51.568;6.932;2022-11-20T01:51:26;21.07;;;14.83;;
7074;SDS011;3578;51.568;6.932;2022-11-20T01:54:01;24.30;;;16.10;;
7074;SDS011;3578;51.568;6.932;2022-11-20T01:56:33;21.87;;;15.43;;
7074;SDS011;3578;51.568;6.932;2022-11-20T01:59:07;19.00;;;15.07;;
7074;SDS011;3578;51.568;6.932;2022-11-20T02:01:36;20.90;;;15.30;;
7074;SDS011;3578;51.568;6.932;2022-11-20T02:04:04;20.43;;;14.83;;
7074;SDS011;3578;51.568;6.932;2022-11-20T02:06:33;26.70;;;16.10;;
7074;SDS011;3578;51.568;6.932;2022-11-20T02:09:06;19.87;;;14.23;;
7074;SDS011;3578;51.568;6.932;2022-11-20T02:11:33;17.70;;;13.30;;
7074;SDS011;3578;51.568;6.932;2022-11-20T02:14:00;21.20;;;15.30;;
7074;SDS011;3578;51.568;6.932;2022-11-20T02:16:27;19.70;;;15.00;;
7074;SDS011;3578;51.568;6.932;2022-11-20T02:18:59;20.50;;;15.90;;
7074;SDS011;3578;51.568;6.932;2022-11-20T02:21:30;20.53;;;14.80;;
7074;SDS011;3578;51.568;6.932;2022-11-20T02:24:08;20.83;;;16.20;;
7074;SDS011;3578;51.568;6.932;2022-11-20T02:26:45;23.10;;;16.30;;
7074;SDS011;3578;51.568;6.932;2022-11-20T02:29:23;19.30;;;14.87;;
7074;SDS011;3578;51.568;6.932;2022-11-20T02:31:54;18.40;;;15.10;;
7074;SDS011;3578;51.568;6.932;2022-11-20T02:34:23;23.13;;;15.20;;
7074;SDS011;3578;51.568;6.932;2022-11-20T02:36:50;21.40;;;15.60;;
7074;SDS011;3578;51.568;6.932;2022-11-20T02:39:20;21.87;;;16.30;;
7074;SDS011;3578;51.568;6.932;2022-11-20T02:41:51;27.57;;;16.13;;
7074;SDS011;3578;51.568;6.932;2022-11-20T02:44:20;23.83;;;14.70;;
7074;SDS011;3578;51.568;6.932;2022-11-20T02:46:47;17.80;;;14.43;;
7074;SDS011;3578;51.568;6.932;2022-11-20T02:49:13;19.57;;;15.20;;
7074;SDS011;3578;51.568;6.932;2022-11-20T02:51:41;20.90;;;14.70;;
7074;SDS011;3578;51.568;6.932;2022-11-20T02:54:08;24.03;;;17.90;;
7074;SDS011;3578;51.568;6.932;2022-11-20T02:56:38;20.37;;;16.00;;
7074;SDS011;3578;51.568;6.932;2022-11-20T02:59:05;24.83;;;16.00;;
7074;SDS011;3578;51.568;6.932;2022-11-20T03:01:33;18.67;;;14.53;;
7074;SDS011;3578;51.568;6.932;2022-11-20T03:04:00;21.10;;;15.57;;
7074;SDS011;3578;51.568;6.932;2022-11-20T03:06:27;24.97;;;15.20;;
7074;SDS011;3578;51.568;6.932;2022-11-20T03:08:54;17.97;;;14.57;;
7074;SDS011;3578;51.568;6.932;2022-11-20T03:11:21;17.80;;;14.80;;
7074;SDS011;3578;51.568;6.932;2022-11-20T03:13:49;20.50;;;15.33;;
7074;SDS011;3578;51.568;6.932;2022-11-20T03:16:17;21.33;;;17.10;;
7074;SDS011;3578;51.568;6.932;2022-11-20T03:18:46;20.80;;;15.90;;
7074;SDS011;3578;51.568;6.932;2022-11-20T03:21:13;18.77;;;14.77;;
7074;SDS011;3578;51.568;6.932;2022-11-20T03:23:41;19.03;;;16.43;;
7074;SDS011;3578;51.568;6.932;2022-11-20T03:26:13;20.63;;;16.40;;
7074;SDS011;3578;51.568;6.932;2022-11-20T03:28:45;22.47;;;15.00;;
7074;SDS011;3578;51.568;6.932;2022-11-20T03:31:17;18.00;;;15.47;;
7074;SDS011;3578;51.568;6.932;2022-11-20T03:33:47;23.00;;;16.30;;
7074;SDS011;3578;51.568;6.932;2022-11-20T03:36:15;19.40;;;16.07;;
7074;SDS011;3578;51.568;6.932;2022-11-20T03:38:44;20.80;;;16.13;;
7074;SDS011;3578;51.568;6.932;2022-11-20T03:41:14;17.93;;;16.03;;
7074;SDS011;3578;51.568;6.932;2022-11-20T03:43:46;19.80;;;15.97;;
7074;SDS011;3578;51.568;6.932;2022-11-20T03:46:14;20.33;;;16.90;;
7074;SDS011;3578;51.568;6.932;2022-11-20T03:48:42;20.27;;;17.30;;
7074;SDS011;3578;51.568;6.932;2022-11-20T03:51:10;19.53;;;16.23;;
7074;SDS011;3578;51.568;6.932;2022-11-20T03:53:39;21.20;;;16.03;;
7074;SDS011;3578;51.568;6.932;2022-11-20T03:56:08;23.73;;;18.47;;
7074;SDS011;3578;51.568;6.932;2022-11-20T03:58:36;21.40;;;17.00;;
7074;SDS011;3578;51.568;6.932;2022-11-20T04:01:06;21.87;;;16.63;;
7074;SDS011;3578;51.568;6.932;2022-11-20T04:03:34;24.67;;;17.87;;
7074;SDS011;3578;51.568;6.932;2022-11-20T04:06:05;19.80;;;16.70;;
7074;SDS011;3578;51.568;6.932;2022-11-20T04:08:34;21.77;;;16.70;;
7074;SDS011;3578;51.568;6.932;2022-11-20T04:11:08;20.97;;;15.97;;
7074;SDS011;3578;51.568;6.932;2022-11-20T04:13:37;19.10;;;15.97;;
7074;SDS011;3578;51.568;6.932;2022-11-20T04:16:04;19.87;;;16.90;;
7074;SDS011;3578;51.568;6.932;2022-11-20T04:18:32;26.93;;;17.03;;
7074;SDS011;3578;51.568;6.932;2022-11-20T04:20:59;18.33;;;16.07;;
7074;SDS011;3578;51.568;6.932;2022-11-20T04:23:28;20.87;;;16.23;;
7074;SDS011;3578;51.568;6.932;2022-11-20T04:25:55;21.13;;;16.90;;
7074;SDS011;3578;51.568;6.932;2022-11-20T04:28:28;19.40;;;15.73;;
7074;SDS011;3578;51.568;6.932;2022-11-20T04:31:01;21.00;;;18.10;;
7074;SDS011;3578;51.568;6.932;2022-11-20T04:33:30;18.07;;;15.77;;
7074;SDS011;3578;51.568;6.932;2022-11-20T04:35:59;19.30;;;16.83;;
7074;SDS011;3578;51.568;6.932;2022-11-20T04:38:30;18.00;;;15.97;;
7074;SDS011;3578;51.568;6.932;2022-11-20T04:40:57;20.23;;;16.83;;
7074;SDS011;3578;51.568;6.932;2022-11-20T04:43:25;20.60;;;16.53;;
7074;SDS011;3578;51.568;6.932;2022-11-20T04:45:52;21.23;;;17.10;;
7074;SDS011;3578;51.568;6.932;2022-11-20T04:48:20;20.10;;;16.70;;
7074;SDS011;3578;51.568;6.932;2022-11-20T04:50:48;20.37;;;17.23;;
7074;SDS011;3578;51.568;6.932;2022-11-20T04:53:15;21.33;;;16.50;;
7074;SDS011;3578;51.568;6.932;2022-11-20T04:55:43;19.17;;;16.13;;
7074;SDS011;3578;51.568;6.932;2022-11-20T04:58:10;18.97;;;16.23;;
7074;SDS011;3578;51.568;6.932;2022-11-20T05:00:38;19.10;;;16.50;;
7074;SDS011;3578;51.568;6.932;2022-11-20T05:03:05;18.20;;;15.90;;
7074;SDS011;3578;51.568;6.932;2022-11-20T05:05:33;19.60;;;16.03;;
7074;SDS011;3578;51.568;6.932;2022-11-20T05:08:00;17.13;;;15.27;;
7074;SDS011;3578;51.568;6.932;2022-11-20T05:10:27;17.60;;;14.93;;
7074;SDS011;3578;51.568;6.932;2022-11-20T05:12:56;18.60;;;16.00;;
7074;SDS011;3578;51.568;6.932;2022-11-20T05:15:23;19.83;;;15.53;;
7074;SDS011;3578;51.568;6.932;2022-11-20T05:17:50;19.87;;;16.40;;
7074;SDS011;3578;51.568;6.932;2022-11-20T05:20:18;18.30;;;15.40;;
7074;SDS011;3578;51.568;6.932;2022-11-20T05:22:45;19.63;;;16.83;;
7074;SDS011;3578;51.568;6.932;2022-11-20T05:25:12;18.83;;;15.50;;
7074;SDS011;3578;51.568;6.932;2022-11-20T05:27:39;19.80;;;16.67;;
7074;SDS011;3578;51.568;6.932;2022-11-20T05:30:08;21.63;;;16.83;;
7074;SDS011;3578;51.568;6.932;2022-11-20T05:32:37;19.03;;;16.20;;
7074;SDS011;3578;51.568;6.932;2022-11-20T05:35:04;18.03;;;16.10;;
7074;SDS011;3578;51.568;6.932;2022-11-20T05:37:32;22.47;;;17.10;;
7074;SDS011;3578;51.568;6.932;2022-11-20T05:39:59;20.90;;;16.23;;
7074;SDS011;3578;51.568;6.932;2022-11-20T05:42:26;22.60;;;16.10;;
7074;SDS011;3578;51.568;6.932;2022-11-20T05:44:58;19.60;;;16.73;;
7074;SDS011;3578;51.568;6.932;2022-11-20T05:47:32;21.00;;;17.80;;
7074;SDS011;3578;51.568;6.932;2022-11-20T05:50:00;20.30;;;17.23;;
7074;SDS011;3578;51.568;6.932;2022-11-20T05:52:27;21.73;;;18.07;;
7074;SDS011;3578;51.568;6.932;2022-11-20T05:54:55;21.23;;;17.77;;
7074;SDS011;3578;51.568;6.932;2022-11-20T05:57:22;20.53;;;17.63;;
7074;SDS011;3578;51.568;6.932;2022-11-20T05:59:49;22.50;;;16.77;;
7074;SDS011;3578;51.568;6.932;2022-11-20T06:02:16;20.60;;;17.23;;
7074;SDS011;3578;51.568;6.932;2022-11-20T06:04:44;18.97;;;16.20;;
7074;SDS011;3578;51.568;6.932;2022-11-20T06:07:11;19.70;;;16.53;;
7074;SDS011;3578;51.568;6.932;2022-11-20T06:09:38;19.90;;;16.17;;
7074;SDS011;3578;51.568;6.932;2022-11-20T06:12:05;22.80;;;17.10;;
7074;SDS011;3578;51.568;6.932;2022-11-20T06:14:33;20.37;;;16.03;;
7074;SDS011;3578;51.568;6.932;2022-11-20T06:17:00;23.17;;;18.57;;
7074;SDS011;3578;51.568;6.932;2022-11-20T06:19:27;24.50;;;17.20;;
7074;SDS011;3578;51.568;6.932;2022-11-20T06:21:55;20.40;;;17.13;;
7074;SDS011;3578;51.568;6.932;2022-11-20T06:24:22;21.57;;;17.40;;
7074;SDS011;3578;51.568;6.932;2022-11-20T06:26:50;19.43;;;16.00;;
7074;SDS011;3578;51.568;6.932;2022-11-20T06:29:17;22.37;;;16.87;;
7074;SDS011;3578;51.568;6.932;2022-11-20T06:31:44;21.47;;;17.43;;
7074;SDS011;3578;51.568;6.932;2022-11-20T06:34:11;19.87;;;16.50;;
7074;SDS011;3578;51.568;6.932;2022-11-20T06:36:38;20.10;;;16.63;;
7074;SDS011;3578;51.568;6.932;2022-11-20T06:39:06;20.27;;;17.30;;
7074;SDS011;3578;51.568;6.932;2022-11-20T06:41:33;21.13;;;18.10;;
7074;SDS011;3578;51.568;6.932;2022-11-20T06:44:00;21.87;;;16.03;;
7074;SDS011;3578;51.568;6.932;2022-11-20T06:46:27;19.20;;;16.20;;
7074;SDS011;3578;51.568;6.932;2022-11-20T06:48:54;22.43;;;17.53;;
7074;SDS011;3578;51.568;6.932;2022-11-20T06:51:22;20.63;;;16.60;;
7074;SDS011;3578;51.568;6.932;2022-11-20T06:53:49;17.60;;;15.57;;
7074;SDS011;3578;51.568;6.932;2022-11-20T06:56:17;19.17;;;16.20;;
7074;SDS011;3578;51.568;6.932;2022-11-20T06:58:44;23.07;;;17.70;;
7074;SDS011;3578;51.568;6.932;2022-11-20T07:01:11;20.33;;;17.67;;
7074;SDS011;3578;51.568;6.932;2022-11-20T07:03:40;19.00;;;16.47;;
7074;SDS011;3578;51.568;6.932;2022-11-20T07:06:08;18.63;;;16.43;;
7074;SDS011;3578;51.568;6.932;2022-11-20T07:08:35;20.43;;;16.10;;
7074;SDS011;3578;51.568;6.932;2022-11-20T07:11:03;22.33;;;16.73;;
7074;SDS011;3578;51.568;6.932;2022-11-20T07:13:34;20.70;;;17.30;;
7074;SDS011;3578;51.568;6.932;2022-11-20T07:16:01;21.70;;;16.30;;
7074;SDS011;3578;51.568;6.932;2022-11-20T07:18:31;19.90;;;16.27;;
7074;SDS011;3578;51.568;6.932;2022-11-20T07:20:59;21.33;;;17.37;;
7074;SDS011;3578;51.568;6.932;2022-11-20T07:23:27;21.63;;;16.50;;
7074;SDS011;3578;51.568;6.932;2022-11-20T07:25:54;19.70;;;17.70;;
7074;SDS011;3578;51.568;6.932;2022-11-20T07:28:21;21.00;;;16.60;;
7074;SDS011;3578;51.568;6.932;2022-11-20T07:30:52;22.13;;;16.73;;
7074;SDS011;3578;51.568;6.932;2022-11-20T07:33:20;19.10;;;16.73;;
7074;SDS011;3578;51.568;6.932;2022-11-20T07:35:47;19.73;;;16.70;;
7074;SDS011;3578;51.568;6.932;2022-11-20T07:38:13;21.87;;;17.33;;
7074;SDS011;3578;51.568;6.932;2022-11-20T07:40:41;22.13;;;17.63;;
7074;SDS011;3578;51.568;6.932;2022-11-20T07:43:08;19.50;;;16.30;;
7074;SDS011;3578;51.568;6.932;2022-11-20T07:45:34;23.80;;;18.17;;
7074;SDS011;3578;51.568;6.932;2022-11-20T07:48:03;21.00;;;16.60;;
7074;SDS011;3578;51.568;6.932;2022-11-20T07:50:30;25.03;;;16.93;;
7074;SDS011;3578;51.568;6.932;2022-11-20T07:53:01;19.93;;;16.03;;
7074;SDS011;3578;51.568;6.932;2022-11-20T07:55:29;21.13;;;15.80;;
7074;SDS011;3578;51.568;6.932;2022-11-20T07:57:57;18.37;;;15.77;;
7074;SDS011;3578;51.568;6.932;2022-11-20T08:00:24;25.93;;;17.53;;
7074;SDS011;3578;51.568;6.932;2022-11-20T08:02:52;19.30;;;16.47;;
7074;SDS011;3578;51.568;6.932;2022-11-20T08:05:21;19.97;;;16.83;;
7074;SDS011;3578;51.568;6.932;2022-11-20T08:07:48;20.73;;;16.63;;
7074;SDS011;3578;51.568;6.932;2022-11-20T08:10:15;24.37;;;17.60;;
7074;SDS011;3578;51.568;6.932;2022-11-20T08:12:45;19.87;;;16.33;;
7074;SDS011;3578;51.568;6.932;2022-11-20T08:15:31;23.40;;;18.30;;
7074;SDS011;3578;51.568;6.932;2022-11-20T08:17:59;25.70;;;18.30;;
7074;SDS011;3578;51.568;6.932;2022-11-20T08:20:29;18.97;;;16.97;;
7074;SDS011;3578;51.568;6.932;2022-11-20T08:22:59;20.43;;;16.87;;
7074;SDS011;3578;51.568;6.932;2022-11-20T08:25:27;21.00;;;17.47;;
7074;SDS011;3578;51.568;6.932;2022-11-20T08:27:56;19.87;;;17.13;;
7074;SDS011;3578;51.568;6.932;2022-11-20T08:30:24;23.30;;;17.83;;
7074;SDS011;3578;51.568;6.932;2022-11-20T08:32:51;21.97;;;19.53;;
7074;SDS011;3578;51.568;6.932;2022-11-20T08:35:18;24.53;;;21.10;;
7074;SDS011;3578;51.568;6.932;2022-11-20T08:37:47;25.33;;;19.83;;
7074;SDS011;3578;51.568;6.932;2022-11-20T08:40:14;23.40;;;18.97;;
7074;SDS011;3578;51.568;6.932;2022-11-20T08:42:45;24.60;;;21.70;;
7074;SDS011;3578;51.568;6.932;2022-11-20T08:45:13;28.30;;;23.80;;
7074;SDS011;3578;51.568;6.932;2022-11-20T08:47:40;23.90;;;20.13;;
7074;SDS011;3578;51.568;6.932;2022-11-20T08:50:08;29.37;;;21.07;;
7074;SDS011;3578;51.568;6.932;2022-11-20T08:52:35;27.60;;;21.53;;
7074;SDS011;3578;51.568;6.932;2022-11-20T08:55:05;22.80;;;20.40;;
7074;SDS011;3578;51.568;6.932;2022-11-20T08:57:34;23.37;;;20.63;;
7074;SDS011;3578;51.568;6.932;2022-11-20T09:00:02;24.60;;;20.57;;
7074;SDS011;3578;51.568;6.932;2022-11-20T09:02:31;22.73;;;19.50;;
7074;SDS011;3578;51.568;6.932;2022-11-20T09:04:58;24.50;;;20.47;;
7074;SDS011;3578;51.568;6.932;2022-11-20T09:07:27;28.23;;;20.47;;
7074;SDS011;3578;51.568;6.932;2022-11-20T09:09:54;26.63;;;20.13;;
7074;SDS011;3578;51.568;6.932;2022-11-20T09:12:22;26.60;;;21.17;;
7074;SDS011;3578;51.568;6.932;2022-11-20T09:14:49;23.33;;;20.87;;
7074;SDS011;3578;51.568;6.932;2022-11-20T09:17:16;27.37;;;20.90;;
7074;SDS011;3578;51.568;6.932;2022-11-20T09:19:45;28.23;;;21.57;;
7074;SDS011;3578;51.568;6.932;2022-11-20T09:22:12;23.87;;;19.80;;
7074;SDS011;3578;51.568;6.932;2022-11-20T09:24:39;24.13;;;20.20;;
7074;SDS011;3578;51.568;6.932;2022-11-20T09:27:07;29.03;;;22.80;;
7074;SDS011;3578;51.568;6.932;2022-11-20T09:29:36;28.80;;;23.10;;
7074;SDS011;3578;51.568;6.932;2022-11-20T09:32:03;26.97;;;21.30;;
7074;SDS011;3578;51.568;6.932;2022-11-20T09:34:31;28.20;;;22.60;;
7074;SDS011;3578;51.568;6.932;2022-11-20T09:36:58;26.83;;;22.47;;
7074;SDS011;3578;51.568;6.932;2022-11-20T09:39:26;35.30;;;23.97;;
7074;SDS011;3578;51.568;6.932;2022-11-20T09:42:04;30.70;;;23.77;;
7074;SDS011;3578;51.568;6.932;2022-11-20T09:45:04;31.80;;;24.90;;
7074;SDS011;3578;51.568;6.932;2022-11-20T09:47:57;35.30;;;24.43;;
7074;SDS011;3578;51.568;6.932;2022-11-20T09:50:45;33.53;;;24.93;;
7074;SDS011;3578;51.568;6.932;2022-11-20T09:53:20;35.40;;;26.77;;
7074;SDS011;3578;51.568;6.932;2022-11-20T09:56:00;35.37;;;27.73;;
7074;SDS011;3578;51.568;6.932;2022-11-20T09:58:30;33.73;;;26.17;;
7074;SDS011;3578;51.568;6.932;2022-11-20T10:01:14;42.43;;;28.47;;
7074;SDS011;3578;51.568;6.932;2022-11-20T10:03:46;34.93;;;26.90;;
7074;SDS011;3578;51.568;6.932;2022-11-20T10:06:24;40.10;;;29.23;;
7074;SDS011;3578;51.568;6.932;2022-11-20T10:09:00;35.50;;;29.90;;
7074;SDS011;3578;51.568;6.932;2022-11-20T10:11:42;43.13;;;31.60;;
7074;SDS011;3578;51.568;6.932;2022-11-20T10:14:25;43.73;;;32.60;;
7074;SDS011;3578;51.568;6.932;2022-11-20T10:17:03;38.50;;;29.30;;
7074;SDS011;3578;51.568;6.932;2022-11-20T10:19:53;41.90;;;30.40;;
7074;SDS011;3578;51.568;6.932;2022-11-20T10:22:41;39.77;;;30.60;;
7074;SDS011;3578;51.568;6.932;2022-11-20T10:25:37;42.13;;;31.87;;
7074;SDS011;3578;51.568;6.932;2022-11-20T10:28:22;38.07;;;29.83;;
7074;SDS011;3578;51.568;6.932;2022-11-20T10:31:02;36.33;;;29.17;;
7074;SDS011;3578;51.568;6.932;2022-11-20T10:33:36;37.17;;;29.43;;
7074;SDS011;3578;51.568;6.932;2022-11-20T10:36:08;41.43;;;32.73;;
7074;SDS011;3578;51.568;6.932;2022-11-20T10:38:44;38.10;;;31.13;;
7074;SDS011;3578;51.568;6.932;2022-11-20T10:41:17;42.50;;;30.90;;
7074;SDS011;3578;51.568;6.932;2022-11-20T10:43:52;33.73;;;28.60;;
7074;SDS011;3578;51.568;6.932;2022-11-20T10:46:29;34.90;;;30.00;;
7074;SDS011;3578;51.568;6.932;2022-11-20T10:49:09;40.90;;;30.43;;
7074;SDS011;3578;51.568;6.932;2022-11-20T10:51:42;35.43;;;30.27;;
7074;SDS011;3578;51.568;6.932;2022-11-20T10:54:25;36.03;;;29.93;;
7074;SDS011;3578;51.568;6.932;2022-11-20T10:57:03;34.47;;;29.30;;
7074;SDS011;3578;51.568;6.932;2022-11-20T10:59:44;34.40;;;28.40;;
7074;SDS011;3578;51.568;6.932;2022-11-20T11:02:31;37.27;;;27.10;;
7074;SDS011;3578;51.568;6.932;2022-11-20T11:05:07;31.27;;;25.50;;
7074;SDS011;3578;51.568;6.932;2022-11-20T11:07:48;31.80;;;25.43;;
7074;SDS011;3578;51.568;6.932;2022-11-20T11:10:20;33.53;;;25.80;;
7074;SDS011;3578;51.568;6.932;2022-11-20T11:12:52;28.50;;;24.17;;
7074;SDS011;3578;51.568;6.932;2022-11-20T11:15:28;32.83;;;23.07;;
7074;SDS011;3578;51.568;6.932;2022-11-20T11:18:02;28.40;;;22.10;;
7074;SDS011;3578;51.568;6.932;2022-11-20T11:20:31;30.70;;;23.53;;
7074;SDS011;3578;51.568;6.932;2022-11-20T11:22:58;28.87;;;21.10;;
7074;SDS011;3578;51.568;6.932;2022-11-20T11:25:27;27.47;;;21.10;;
7074;SDS011;3578;51.568;6.932;2022-11-20T11:27:56;24.60;;;20.50;;
7074;SDS011;3578;51.568;6.932;2022-11-20T11:30:26;24.10;;;19.50;;
7074;SDS011;3578;51.568;6.932;2022-11-20T11:33:05;31.70;;;21.30;;
7074;SDS011;3578;51.568;6.932;2022-11-20T11:35:43;24.43;;;21.83;;
7074;SDS011;3578;51.568;6.932;2022-11-20T11:38:14;26.23;;;20.87;;
7074;SDS011;3578;51.568;6.932;2022-11-20T11:40:45;24.60;;;19.60;;
7074;SDS011;3578;51.568;6.932;2022-11-20T11:43:17;25.50;;;22.27;;
7074;SDS011;3578;51.568;6.932;2022-11-20T11:46:06;26.67;;;21.07;;
7074;SDS011;3578;51.568;6.932;2022-11-20T11:48:56;27.33;;;21.33;;
7074;SDS011;3578;51.568;6.932;2022-11-20T11:51:27;24.60;;;20.23;;
7074;SDS011;3578;51.568;6.932;2022-11-20T11:54:00;26.37;;;21.67;;
7074;SDS011;3578;51.568;6.932;2022-11-20T11:56:40;27.43;;;21.77;;
7074;SDS011;3578;51.568;6.932;2022-11-20T11:59:09;21.93;;;19.27;;
7074;SDS011;3578;51.568;6.932;2022-11-20T12:01:42;24.50;;;21.90;;
7074;SDS011;3578;51.568;6.932;2022-11-20T12:04:15;25.83;;;21.47;;
7074;SDS011;3578;51.568;6.932;2022-11-20T12:06:51;25.40;;;20.60;;
7074;SDS011;3578;51.568;6.932;2022-11-20T12:09:27;24.00;;;19.70;;
7074;SDS011;3578;51.568;6.932;2022-11-20T12:12:04;29.47;;;22.67;;
7074;SDS011;3578;51.568;6.932;2022-11-20T12:14:37;27.80;;;22.70;;
7074;SDS011;3578;51.568;6.932;2022-11-20T12:17:07;25.20;;;21.17;;
7074;SDS011;3578;51.568;6.932;2022-11-20T12:19:37;29.07;;;22.93;;
7074;SDS011;3578;51.568;6.932;2022-11-20T12:22:07;29.00;;;22.60;;
7074;SDS011;3578;51.568;6.932;2022-11-20T12:24:52;27.13;;;21.20;;
7074;SDS011;3578;51.568;6.932;2022-11-20T12:30:36;26.23;;;21.83;;
7074;SDS011;3578;51.568;6.932;2022-11-20T12:36:17;20.43;;;18.27;;
7074;SDS011;3578;51.568;6.932;2022-11-20T12:38:57;24.23;;;21.47;;
7074;SDS011;3578;51.568;6.932;2022-11-20T12:41:43;24.77;;;20.10;;
7074;SDS011;3578;51.568;6.932;2022-11-20T12:44:42;22.30;;;17.90;;
7074;SDS011;3578;51.568;6.932;2022-11-20T12:47:51;24.30;;;20.10;;
7074;SDS011;3578;51.568;6.932;2022-11-20T12:50:46;25.70;;;18.67;;
7074;SDS011;3578;51.568;6.932;2022-11-20T12:53:27;22.97;;;19.23;;
7074;SDS011;3578;51.568;6.932;2022-11-20T12:56:12;22.10;;;18.57;;
7074;SDS011;3578;51.568;6.932;2022-11-20T12:58:59;22.40;;;18.90;;
7074;SDS011;3578;51.568;6.932;2022-11-20T13:01:45;25.23;;;18.97;;
7074;SDS011;3578;51.568;6.932;2022-11-20T13:04:25;22.80;;;19.80;;
7074;SDS011;3578;51.568;6.932;2022-11-20T13:07:16;25.13;;;18.57;;
7074;SDS011;3578;51.568;6.932;2022-11-20T13:09:46;22.53;;;18.10;;
7074;SDS011;3578;51.568;6.932;2022-11-20T13:12:19;19.63;;;17.33;;
7074;SDS011;3578;51.568;6.932;2022-11-20T13:14:55;24.53;;;19.07;;
7074;SDS011;3578;51.568;6.932;2022-11-20T13:17:38;22.60;;;18.60;;
7074;SDS011;3578;51.568;6.932;2022-11-20T13:20:13;25.57;;;18.70;;
7074;SDS011;3578;51.568;6.932;2022-11-20T13:22:45;24.80;;;21.33;;
7074;SDS011;3578;51.568;6.932;2022-11-20T13:25:24;30.07;;;22.00;;
7074;SDS011;3578;51.568;6.932;2022-11-20T13:27:54;28.33;;;22.67;;
7074;SDS011;3578;51.568;6.932;2022-11-20T13:30:23;27.17;;;21.83;;
7074;SDS011;3578;51.568;6.932;2022-11-20T13:32:53;26.63;;;22.07;;
7074;SDS011;3578;51.568;6.932;2022-11-20T13:35:31;27.27;;;22.50;;
7074;SDS011;3578;51.568;6.932;2022-11-20T13:38:04;26.70;;;22.63;;
7074;SDS011;3578;51.568;6.932;2022-11-20T13:40:35;27.00;;;21.87;;
7074;SDS011;3578;51.568;6.932;2022-11-20T13:43:18;27.27;;;21.23;;
7074;SDS011;3578;51.568;6.932;2022-11-20T13:45:59;25.27;;;21.40;;
7074;SDS011;3578;51.568;6.932;2022-11-20T13:48:29;22.20;;;18.90;;
7074;SDS011;3578;51.568;6.932;2022-11-20T13:51:07;27.23;;;20.17;;
7074;SDS011;3578;51.568;6.932;2022-11-20T13:53:58;28.07;;;21.50;;
7074;SDS011;3578;51.568;6.932;2022-11-20T13:57:02;24.50;;;19.70;;
7074;SDS011;3578;51.568;6.932;2022-11-20T13:59:48;23.27;;;19.10;;
7074;SDS011;3578;51.568;6.932;2022-11-20T14:02:25;21.87;;;17.87;;
7074;SDS011;3578;51.568;6.932;2022-11-20T14:04:56;22.40;;;18.63;;
7074;SDS011;3578;51.568;6.932;2022-11-20T14:07:32;22.20;;;18.47;;
7074;SDS011;3578;51.568;6.932;2022-11-20T14:10:05;20.23;;;17.33;;
7074;SDS011;3578;51.568;6.932;2022-11-20T14:12:50;20.50;;;17.03;;
7074;SDS011;3578;51.568;6.932;2022-11-20T14:15:25;21.77;;;17.67;;
7074;SDS011;3578;51.568;6.932;2022-11-20T14:17:55;23.17;;;18.07;;
7074;SDS011;3578;51.568;6.932;2022-11-20T14:20:23;22.83;;;18.37;;
7074;SDS011;3578;51.568;6.932;2022-11-20T14:22:53;25.57;;;19.53;;
7074;SDS011;3578;51.568;6.932;2022-11-20T14:25:21;23.27;;;19.00;;
7074;SDS011;3578;51.568;6.932;2022-11-20T14:27:52;25.20;;;19.40;;
7074;SDS011;3578;51.568;6.932;2022-11-20T14:30:22;22.60;;;19.40;;
7074;SDS011;3578;51.568;6.932;2022-11-20T14:32:53;23.00;;;18.97;;
7074;SDS011;3578;51.568;6.932;2022-11-20T14:35:24;22.47;;;17.90;;
7074;SDS011;3578;51.568;6.932;2022-11-20T14:37:55;22.83;;;17.90;;
7074;SDS011;3578;51.568;6.932;2022-11-20T14:40:24;24.27;;;19.60;;
7074;SDS011;3578;51.568;6.932;2022-11-20T14:42:55;28.50;;;19.43;;
7074;SDS011;3578;51.568;6.932;2022-11-20T14:45:23;25.03;;;20.23;;
7074;SDS011;3578;51.568;6.932;2022-11-20T14:47:52;25.03;;;20.23;;
7074;SDS011;3578;51.568;6.932;2022-11-20T14:50:23;23.67;;;19.83;;
7074;SDS011;3578;51.568;6.932;2022-11-20T14:52:53;26.43;;;20.63;;
7074;SDS011;3578;51.568;6.932;2022-11-20T14:55:27;23.20;;;19.93;;
7074;SDS011;3578;51.568;6.932;2022-11-20T14:57:57;24.70;;;19.97;;
7074;SDS011;3578;51.568;6.932;2022-11-20T15:00:29;25.13;;;20.97;;
7074;SDS011;3578;51.568;6.932;2022-11-20T15:02:58;25.50;;;20.03;;
7074;SDS011;3578;51.568;6.932;2022-11-20T15:05:25;28.20;;;21.70;;
7074;SDS011;3578;51.568;6.932;2022-11-20T15:08:11;29.63;;;21.40;;
7074;SDS011;3578;51.568;6.932;2022-11-20T15:10:44;27.40;;;21.60;;
7074;SDS011;3578;51.568;6.932;2022-11-20T15:13:13;27.57;;;21.40;;
7074;SDS011;3578;51.568;6.932;2022-11-20T15:15:48;28.80;;;21.63;;
7074;SDS011;3578;51.568;6.932;2022-11-20T15:18:19;32.97;;;22.30;;
7074;SDS011;3578;51.568;6.932;2022-11-20T15:20:48;29.17;;;22.40;;